Time;durP1;ratioP1;P1;durP2;ratioP2;P2;SDS_P1;SDS_P2;PMS_P1;PMS_P2;Temp;Humidity;BMP_temperature;BMP_pressure;BME280_temperature;BME280_humidity;BME280_pressure;Samples;Min_cycle;Max_cycle;Signal;HPM_P1;HPM_P2
2021/08/01 00:02:13;;;;;;;2.85;1.70;;;18.00;91.40;;;;;;5061356;28;20096;-72
2021/08/01 00:04:39;;;;;;;3.17;1.85;;;18.00;91.50;;;;;;5059712;28;20102;-73
2021/08/01 00:07:05;;;;;;;3.17;2.20;;;18.00;91.60;;;;;;5054997;28;20068;-73
2021/08/01 00:09:30;;;;;;;3.30;2.00;;;18.00;91.90;;;;;;5064217;28;20028;-72
2021/08/01 00:11:56;;;;;;;7.57;2.40;;;17.90;92.20;;;;;;5062314;28;20662;-72
2021/08/01 00:14:21;;;;;;;2.67;1.52;;;17.90;92.40;;;;;;5059147;28;20791;-72
2021/08/01 00:16:47;;;;;;;4.68;1.83;;;17.90;92.60;;;;;;5055745;28;20047;-73
2021/08/01 00:19:12;;;;;;;6.25;1.70;;;17.90;92.70;;;;;;5059067;28;20661;-73
2021/08/01 00:21:38;;;;;;;3.33;1.90;;;17.80;93.10;;;;;;5063874;28;20017;-73
2021/08/01 00:24:04;;;;;;;3.45;2.00;;;17.80;92.90;;;;;;5057301;28;20059;-73
2021/08/01 00:26:29;;;;;;;4.15;1.70;;;17.80;93.00;;;;;;5051147;28;20108;-73
2021/08/01 00:28:55;;;;;;;4.25;2.05;;;17.80;93.10;;;;;;5061684;28;20025;-72
2021/08/01 00:31:20;;;;;;;3.50;1.65;;;17.70;93.60;;;;;;5061835;28;20033;-73
2021/08/01 00:33:46;;;;;;;6.10;1.90;;;17.70;93.60;;;;;;5063482;28;20107;-73
2021/08/01 00:36:11;;;;;;;4.20;1.98;;;17.70;94.00;;;;;;5055717;28;20193;-73
2021/08/01 00:38:40;;;;;;;4.65;1.92;;;17.70;94.30;;;;;;5033603;28;20025;-73
2021/08/01 00:41:06;;;;;;;2.92;1.92;;;17.60;94.30;;;;;;5065138;28;20029;-73
2021/08/01 00:43:32;;;;;;;2.63;2.08;;;17.60;94.40;;;;;;5064034;28;20029;-73
2021/08/01 00:45:58;;;;;;;2.60;1.67;;;17.60;94.50;;;;;;5058526;28;20031;-73
2021/08/01 00:48:25;;;;;;;3.60;1.92;;;17.60;94.90;;;;;;5062235;28;20055;-73
2021/08/01 00:50:52;;;;;;;2.20;1.80;;;17.60;94.90;;;;;;5057680;28;20025;-72
2021/08/01 00:53:21;;;;;;;2.00;1.75;;;17.60;95.20;;;;;;5060825;28;20090;-73
2021/08/01 00:55:47;;;;;;;3.80;2.10;;;17.50;95.60;;;;;;5053298;28;20065;-73
2021/08/01 00:58:12;;;;;;;3.47;2.00;;;17.50;95.60;;;;;;5052534;28;20044;-73
2021/08/01 01:03:27;;;;;;;2.17;1.75;;;17.50;95.80;;;;;;5065599;28;20028;-72
2021/08/01 01:06:13;;;;;;;3.08;1.73;;;17.40;96.40;;;;;;5062001;28;20499;-73
2021/08/01 01:08:48;;;;;;;1.92;1.73;;;17.40;97.00;;;;;;5064943;28;20127;-73
2021/08/01 01:11:16;;;;;;;5.85;1.85;;;17.40;96.70;;;;;;5060657;28;20048;-73
2021/08/01 01:13:46;;;;;;;3.03;2.00;;;17.40;97.20;;;;;;5065518;28;20135;-73
2021/08/01 01:16:12;;;;;;;2.85;1.73;;;17.30;97.10;;;;;;5061269;28;20226;-73
2021/08/01 01:18:59;;;;;;;3.75;1.73;;;17.40;97.10;;;;;;5052710;28;20083;-73
2021/08/01 01:22:12;;;;;;;2.47;1.80;;;17.30;97.40;;;;;;5063717;28;20494;-73
2021/08/01 01:24:40;;;;;;;2.28;1.80;;;17.30;97.60;;;;;;5035574;28;20134;-73
2021/08/01 01:27:24;;;;;;;2.53;1.70;;;17.20;98.10;;;;;;5063207;28;20024;-73
2021/08/01 01:30:03;;;;;;;3.40;2.15;;;17.20;98.10;;;;;;5062208;28;20438;-73
2021/08/01 01:32:44;;;;;;;1.98;1.73;;;17.20;98.20;;;;;;5059310;28;20038;-73
2021/08/01 01:35:15;;;;;;;6.35;1.95;;;17.20;98.60;;;;;;5060841;28;20122;-73
2021/08/01 01:37:44;;;;;;;2.40;2.17;;;17.20;98.60;;;;;;5061356;28;20479;-73
2021/08/01 01:40:11;;;;;;;6.13;2.50;;;17.20;99.20;;;;;;5058988;28;20032;-73
2021/08/01 01:42:39;;;;;;;2.65;2.20;;;17.10;99.40;;;;;;5057573;28;20097;-73
2021/08/01 01:45:05;;;;;;;2.33;1.70;;;17.10;99.20;;;;;;5060503;28;20039;-73
2021/08/01 01:47:32;;;;;;;2.08;1.70;;;17.10;99.20;;;;;;5058483;28;20028;-73
2021/08/01 01:49:59;;;;;;;3.17;1.90;;;17.10;99.40;;;;;;5063051;28;20029;-73
2021/08/01 01:52:28;;;;;;;2.15;1.92;;;17.00;99.90;;;;;;5068242;28;20111;-73
2021/08/01 01:54:54;;;;;;;2.85;1.92;;;17.00;99.90;;;;;;5057341;28;20040;-72
2021/08/01 01:57:20;;;;;;;2.35;1.90;;;17.00;99.90;;;;;;5060056;28;20021;-72
2021/08/01 01:59:46;;;;;;;2.33;2.13;;;17.00;99.90;;;;;;5059233;28;20048;-73
2021/08/01 02:02:12;;;;;;;3.97;2.30;;;17.00;99.90;;;;;;5055897;28;20108;-74
2021/08/01 02:04:37;;;;;;;7.20;2.35;;;17.00;99.90;;;;;;5061513;28;20128;-73
2021/08/01 02:07:06;;;;;;;3.17;2.40;;;17.00;99.90;;;;;;5057468;28;20387;-73
2021/08/01 02:09:57;;;;;;;3.83;1.98;;;17.00;99.90;;;;;;5052898;28;20029;-72
2021/08/01 02:12:48;;;;;;;2.22;1.92;;;16.90;99.90;;;;;;5058589;28;20505;-73
2021/08/01 02:15:18;;;;;;;4.43;2.13;;;17.00;99.90;;;;;;5065879;28;20025;-73
2021/08/01 02:17:58;;;;;;;3.55;2.22;;;16.90;99.90;;;;;;5052324;28;20402;-73
2021/08/01 02:20:28;;;;;;;4.20;2.13;;;16.90;99.90;;;;;;5060634;28;20066;-73
2021/08/01 02:22:55;;;;;;;5.00;2.45;;;16.90;99.90;;;;;;5061657;28;20063;-73
2021/08/01 02:25:22;;;;;;;3.70;2.47;;;16.90;99.90;;;;;;5059929;28;20044;-72
2021/08/01 02:27:49;;;;;;;3.40;1.95;;;16.90;99.90;;;;;;5054081;28;20040;-73
2021/08/01 02:30:15;;;;;;;4.75;2.38;;;16.80;99.90;;;;;;5054510;28;20482;-73
2021/08/01 02:32:41;;;;;;;3.03;2.30;;;16.80;99.90;;;;;;5062252;28;20046;-73
2021/08/01 02:35:08;;;;;;;2.55;2.33;;;16.70;99.90;;;;;;5065730;28;20387;-73
2021/08/01 02:37:35;;;;;;;6.30;2.40;;;16.70;99.90;;;;;;5064234;28;20035;-73
2021/08/01 02:40:02;;;;;;;4.97;2.10;;;16.70;99.90;;;;;;5058220;28;20040;-74
2021/08/01 02:42:28;;;;;;;5.40;2.42;;;16.70;99.90;;;;;;5058951;28;20025;-73
2021/08/01 02:44:57;;;;;;;2.20;2.00;;;16.70;99.90;;;;;;5061184;28;20500;-73
2021/08/01 02:47:24;;;;;;;2.90;2.40;;;16.70;99.90;;;;;;5058966;28;20048;-73
2021/08/01 02:49:54;;;;;;;6.60;2.40;;;16.70;99.90;;;;;;5057896;28;20386;-73
2021/08/01 02:52:27;;;;;;;2.67;2.25;;;16.60;99.90;;;;;;5064295;28;20020;-73
2021/08/01 02:54:53;;;;;;;3.63;2.30;;;16.60;99.90;;;;;;5057648;28;20139;-73
2021/08/01 02:57:21;;;;;;;3.92;2.63;;;16.60;99.90;;;;;;5059231;28;20020;-73
2021/08/01 02:59:47;;;;;;;3.00;2.10;;;16.60;99.90;;;;;;5051897;28;20025;-73
2021/08/01 03:02:13;;;;;;;4.03;2.15;;;16.60;99.90;;;;;;5050796;28;20674;-74
2021/08/01 03:04:40;;;;;;;2.30;2.10;;;16.60;99.90;;;;;;5060861;28;20461;-73
2021/08/01 03:07:11;;;;;;;3.28;2.53;;;16.60;99.90;;;;;;5056430;28;20041;-73
2021/08/01 03:09:37;;;;;;;5.03;2.35;;;16.50;99.90;;;;;;5061344;28;20123;-73
2021/08/01 03:12:10;;;;;;;5.47;2.80;;;16.50;99.90;;;;;;5056291;28;20446;-73
2021/08/01 03:14:35;;;;;;;3.53;2.40;;;16.50;99.90;;;;;;5063570;28;20067;-73
2021/08/01 03:17:01;;;;;;;5.80;2.70;;;16.50;99.90;;;;;;5059188;28;20017;-73
2021/08/01 03:19:26;;;;;;;4.90;2.35;;;16.50;99.90;;;;;;5063497;28;20292;-73
2021/08/01 03:21:52;;;;;;;3.55;2.30;;;16.50;99.90;;;;;;5059272;28;20023;-72
2021/08/01 03:24:17;;;;;;;4.18;2.42;;;16.40;99.90;;;;;;5065608;28;20024;-73
2021/08/01 03:26:43;;;;;;;2.92;2.38;;;16.40;99.90;;;;;;5056786;28;20039;-73
2021/08/01 03:29:08;;;;;;;4.75;2.78;;;16.40;99.90;;;;;;5062387;28;20029;-74
2021/08/01 03:31:36;;;;;;;4.40;2.58;;;16.40;99.90;;;;;;5052176;28;20475;-73
2021/08/01 03:34:02;;;;;;;2.92;2.20;;;16.40;99.90;;;;;;5052537;28;20021;-74
2021/08/01 03:36:27;;;;;;;4.95;2.63;;;16.40;99.90;;;;;;5054365;28;20416;-73
2021/08/01 03:38:53;;;;;;;3.45;2.38;;;16.40;99.90;;;;;;5058491;28;20025;-72
2021/08/01 03:41:18;;;;;;;4.65;2.40;;;16.40;99.90;;;;;;5055258;28;20024;-74
2021/08/01 03:43:44;;;;;;;4.35;2.58;;;16.40;99.90;;;;;;5058585;28;20112;-74
2021/08/01 03:46:09;;;;;;;5.55;2.58;;;16.40;99.90;;;;;;5054091;28;20074;-72
2021/08/01 03:48:35;;;;;;;4.05;2.50;;;16.40;99.90;;;;;;5050086;28;20139;-73
2021/08/01 03:51:01;;;;;;;4.15;2.60;;;16.40;99.90;;;;;;5054112;28;20057;-73
2021/08/01 03:53:26;;;;;;;3.60;2.60;;;16.40;99.90;;;;;;5062021;28;20056;-73
2021/08/01 03:55:52;;;;;;;3.53;2.53;;;16.40;99.90;;;;;;5066399;28;20380;-73
2021/08/01 03:58:17;;;;;;;4.32;2.55;;;16.40;99.90;;;;;;5058466;28;20025;-73
2021/08/01 04:00:47;;;;;;;3.08;2.17;;;16.40;99.90;;;;;;5059412;28;20029;-73
2021/08/01 04:03:13;;;;;;;5.00;2.75;;;16.40;99.90;;;;;;5054753;28;20685;-73
2021/08/01 04:05:38;;;;;;;3.40;2.53;;;16.40;99.90;;;;;;5062485;28;20060;-73
2021/08/01 04:08:04;;;;;;;7.30;2.65;;;16.40;99.90;;;;;;5056573;28;20059;-73
2021/08/01 04:10:29;;;;;;;3.50;2.45;;;16.40;99.90;;;;;;5056057;28;20075;-73
2021/08/01 04:12:55;;;;;;;4.15;2.67;;;16.50;99.90;;;;;;5059417;28;20067;-73
2021/08/01 04:15:20;;;;;;;4.60;2.63;;;16.50;99.90;;;;;;5059973;28;20036;-73
2021/08/01 04:17:46;;;;;;;3.80;2.78;;;16.40;99.90;;;;;;5052343;28;20033;-74
2021/08/01 04:20:12;;;;;;;4.55;2.40;;;16.50;99.90;;;;;;5057333;28;20049;-73
2021/08/01 04:22:38;;;;;;;5.00;2.65;;;16.50;99.90;;;;;;5063234;28;20384;-73
2021/08/01 04:25:04;;;;;;;4.43;2.92;;;16.50;99.90;;;;;;5059701;28;20028;-73
2021/08/01 04:27:29;;;;;;;2.95;2.60;;;16.50;99.90;;;;;;5059098;28;20482;-73
2021/08/01 04:29:55;;;;;;;6.60;2.55;;;16.50;99.90;;;;;;5059887;28;20027;-73
2021/08/01 04:32:20;;;;;;;5.38;2.55;;;16.50;99.90;;;;;;5060739;28;20037;-73
2021/08/01 04:34:45;;;;;;;3.33;3.00;;;16.50;99.90;;;;;;5063123;28;20111;-73
2021/08/01 04:37:11;;;;;;;2.72;2.40;;;16.50;99.90;;;;;;5059487;28;20116;-74
2021/08/01 04:39:36;;;;;;;4.22;2.55;;;16.50;99.90;;;;;;5059343;28;20032;-73
2021/08/01 04:42:02;;;;;;;3.60;2.60;;;16.50;99.90;;;;;;5062705;28;20053;-74
2021/08/01 04:44:28;;;;;;;6.32;2.75;;;16.60;99.90;;;;;;5055981;28;20031;-73
2021/08/01 04:46:53;;;;;;;3.38;2.13;;;16.60;99.90;;;;;;5062834;28;20389;-73
2021/08/01 04:49:18;;;;;;;6.80;2.67;;;16.60;99.90;;;;;;5066577;28;20032;-74
2021/08/01 04:51:44;;;;;;;3.20;2.53;;;16.60;99.90;;;;;;5062754;28;20024;-74
2021/08/01 04:54:09;;;;;;;5.60;2.67;;;16.70;99.90;;;;;;5059310;28;20114;-73
2021/08/01 04:56:35;;;;;;;4.80;2.67;;;16.80;99.90;;;;;;5055996;28;20028;-74
2021/08/01 04:59:00;;;;;;;5.40;2.70;;;16.80;99.90;;;;;;5055101;28;20497;-73
2021/08/01 05:01:26;;;;;;;2.60;2.40;;;16.80;99.90;;;;;;5053441;28;20036;-73
2021/08/01 05:03:51;;;;;;;8.75;2.65;;;16.90;99.90;;;;;;5061092;28;20020;-73
2021/08/01 05:06:17;;;;;;;2.80;2.60;;;16.90;99.90;;;;;;5060200;28;20036;-74
2021/08/01 05:08:42;;;;;;;4.85;2.50;;;16.90;99.90;;;;;;5059214;28;20133;-73
2021/08/01 05:11:08;;;;;;;4.88;2.45;;;17.00;99.90;;;;;;5054161;28;20056;-73
2021/08/01 05:13:34;;;;;;;5.00;2.80;;;17.00;99.90;;;;;;5057984;28;20111;-73
2021/08/01 05:15:59;;;;;;;4.40;3.03;;;17.10;99.90;;;;;;5061805;28;20071;-73
2021/08/01 05:18:25;;;;;;;4.45;2.90;;;17.10;99.90;;;;;;5056892;28;20051;-73
2021/08/01 05:20:50;;;;;;;5.05;2.75;;;17.10;99.90;;;;;;5056519;28;20028;-74
2021/08/01 05:23:16;;;;;;;3.80;2.60;;;17.20;99.90;;;;;;5057013;28;20398;-73
2021/08/01 05:25:41;;;;;;;3.35;2.88;;;17.20;99.90;;;;;;5069642;28;20025;-73
2021/08/01 05:28:07;;;;;;;3.28;2.60;;;17.20;99.90;;;;;;5064221;28;20522;-73
2021/08/01 05:30:32;;;;;;;7.60;2.80;;;17.20;99.90;;;;;;5057919;28;20024;-73
2021/08/01 05:32:58;;;;;;;3.88;2.58;;;17.30;99.90;;;;;;5066970;28;20565;-73
2021/08/01 05:35:23;;;;;;;2.65;2.20;;;17.30;99.90;;;;;;5057191;28;20021;-74
2021/08/01 05:37:49;;;;;;;4.78;2.90;;;17.30;99.90;;;;;;5070106;28;20033;-73
2021/08/01 05:40:14;;;;;;;6.00;3.22;;;17.30;99.90;;;;;;5059445;28;20426;-72
2021/08/01 05:42:40;;;;;;;5.20;3.20;;;17.30;99.90;;;;;;5059946;28;20025;-73
2021/08/01 05:45:06;;;;;;;4.13;3.15;;;17.30;99.90;;;;;;5059698;28;20086;-73
2021/08/01 05:47:39;;;;;;;5.90;3.03;;;17.30;99.90;;;;;;5067096;28;20085;-72
2021/08/01 05:50:05;;;;;;;4.90;3.50;;;17.30;99.90;;;;;;5064454;28;20048;-73
2021/08/01 05:52:31;;;;;;;4.53;3.00;;;17.30;99.90;;;;;;5063213;28;20068;-73
2021/08/01 05:54:56;;;;;;;5.00;2.92;;;17.30;99.90;;;;;;5063062;28;20063;-72
2021/08/01 05:57:22;;;;;;;4.25;3.00;;;17.30;99.90;;;;;;5059853;28;20024;-72
2021/08/01 05:59:47;;;;;;;4.50;3.17;;;17.30;99.90;;;;;;5054919;28;20091;-72
2021/08/01 06:02:13;;;;;;;6.07;3.00;;;17.30;99.90;;;;;;5055843;28;20802;-72
2021/08/01 06:04:39;;;;;;;6.15;2.90;;;17.40;99.90;;;;;;5064510;28;20028;-72
2021/08/01 06:07:06;;;;;;;5.78;3.40;;;17.40;99.90;;;;;;5052188;28;20411;-73
2021/08/01 06:09:32;;;;;;;4.20;3.10;;;17.40;99.90;;;;;;5056076;28;20043;-73
2021/08/01 06:11:58;;;;;;;5.82;3.00;;;17.50;99.90;;;;;;5060322;28;20021;-72
2021/08/01 06:14:23;;;;;;;3.92;2.97;;;17.60;99.90;;;;;;5056496;28;20040;-72
2021/08/01 06:16:49;;;;;;;4.80;2.90;;;17.50;99.90;;;;;;5058279;28;20017;-72
2021/08/01 06:19:14;;;;;;;5.50;3.03;;;17.50;99.90;;;;;;5058457;28;20039;-72
2021/08/01 06:21:40;;;;;;;4.43;2.90;;;17.60;99.90;;;;;;5057612;28;20032;-72
2021/08/01 06:24:05;;;;;;;3.03;2.72;;;17.50;99.90;;;;;;5061605;28;20162;-74
2021/08/01 06:26:31;;;;;;;4.43;2.70;;;17.60;99.90;;;;;;5061221;28;20044;-73
2021/08/01 06:28:56;;;;;;;3.25;2.50;;;17.60;99.90;;;;;;5063333;28;20029;-72
2021/08/01 06:31:22;;;;;;;8.25;2.60;;;17.70;99.90;;;;;;5058386;28;20029;-73
2021/08/01 06:33:48;;;;;;;3.95;2.10;;;17.80;99.90;;;;;;5066048;28;20033;-73
2021/08/01 06:36:15;;;;;;;5.15;2.55;;;17.80;99.90;;;;;;5054014;28;20043;-73
2021/08/01 06:38:42;;;;;;;2.88;2.42;;;17.80;99.90;;;;;;5054716;28;20040;-72
2021/08/01 06:41:08;;;;;;;5.82;2.42;;;17.80;99.90;;;;;;5061091;28;20017;-72
2021/08/01 06:43:33;;;;;;;3.45;2.40;;;17.90;99.90;;;;;;5056248;28;20032;-73
2021/08/01 06:45:59;;;;;;;2.72;2.20;;;18.00;99.90;;;;;;5051230;28;20032;-72
2021/08/01 06:48:25;;;;;;;2.58;2.13;;;18.00;99.90;;;;;;5061750;28;20032;-74
2021/08/01 06:50:51;;;;;;;4.03;2.35;;;18.00;99.90;;;;;;5053323;28;20475;-73
2021/08/01 06:53:17;;;;;;;2.67;2.08;;;18.00;99.90;;;;;;5058912;28;20033;-73
2021/08/01 06:55:42;;;;;;;2.78;2.30;;;18.10;99.90;;;;;;5066906;28;20809;-73
2021/08/01 06:58:08;;;;;;;2.80;1.70;;;18.10;99.90;;;;;;5059644;28;20108;-74
2021/08/01 07:00:34;;;;;;;3.58;2.10;;;18.20;99.90;;;;;;5062902;28;20032;-73
2021/08/01 07:03:00;;;;;;;2.15;1.95;;;18.30;99.90;;;;;;5062265;28;20104;-72
2021/08/01 07:05:27;;;;;;;2.20;2.00;;;18.30;99.90;;;;;;5053345;28;20041;-72
2021/08/01 07:07:55;;;;;;;3.00;2.05;;;18.30;99.90;;;;;;5062330;28;20033;-72
2021/08/01 07:10:21;;;;;;;2.75;1.70;;;18.40;99.90;;;;;;5057800;28;20076;-71
2021/08/01 07:12:46;;;;;;;3.97;2.30;;;18.40;99.90;;;;;;5061743;28;20036;-72
2021/08/01 07:15:13;;;;;;;3.83;1.90;;;18.50;99.90;;;;;;5059502;28;20114;-72
2021/08/01 07:17:39;;;;;;;7.25;2.25;;;18.50;99.90;;;;;;5064678;28;20032;-73
2021/08/01 07:20:08;;;;;;;6.30;2.17;;;18.50;99.90;;;;;;5065742;28;20025;-73
2021/08/01 07:22:33;;;;;;;2.97;1.92;;;18.50;99.90;;;;;;5067802;28;20024;-72
2021/08/01 07:24:59;;;;;;;4.47;2.08;;;18.50;99.90;;;;;;5060119;28;20356;-72
2021/08/01 07:27:25;;;;;;;4.25;2.22;;;18.60;99.90;;;;;;5064037;28;20074;-73
2021/08/01 07:29:50;;;;;;;3.97;1.98;;;18.60;99.90;;;;;;5055475;28;20483;-73
2021/08/01 07:32:16;;;;;;;2.42;2.13;;;18.60;99.90;;;;;;5060453;28;20055;-72
2021/08/01 07:34:41;;;;;;;3.13;2.28;;;18.50;99.90;;;;;;5059943;28;20622;-72
2021/08/01 07:37:07;;;;;;;3.47;2.25;;;18.50;99.90;;;;;;5062661;28;20072;-73
2021/08/01 07:39:32;;;;;;;8.43;2.38;;;18.50;99.90;;;;;;5057259;28;20032;-72
2021/08/01 07:41:58;;;;;;;9.93;2.40;;;18.60;99.90;;;;;;5061974;28;20407;-73
2021/08/01 07:44:26;;;;;;;5.35;2.50;;;18.70;99.90;;;;;;5056805;28;20021;-73
2021/08/01 07:46:51;;;;;;;2.85;2.30;;;18.80;99.90;;;;;;5059725;28;20086;-74
2021/08/01 07:49:17;;;;;;;6.43;2.45;;;19.00;99.90;;;;;;5054591;28;20033;-72
2021/08/01 07:51:42;;;;;;;6.72;2.10;;;19.00;99.10;;;;;;5048030;28;20021;-73
2021/08/01 07:54:08;;;;;;;2.53;2.20;;;19.10;98.90;;;;;;5065191;28;20475;-73
2021/08/01 07:56:33;;;;;;;6.13;2.45;;;19.10;98.10;;;;;;5057955;28;20135;-75
2021/08/01 07:59:01;;;;;;;2.35;1.98;;;19.10;98.60;;;;;;5050801;28;20059;-73
2021/08/01 08:01:26;;;;;;;2.63;1.80;;;19.10;98.60;;;;;;5055471;28;20036;-73
2021/08/01 08:03:52;;;;;;;5.03;2.13;;;19.10;97.70;;;;;;5062343;28;20017;-73
2021/08/01 08:06:17;;;;;;;5.82;2.20;;;19.10;97.40;;;;;;5054662;28;20136;-74
2021/08/01 08:08:43;;;;;;;3.92;2.22;;;19.10;97.40;;;;;;5059562;28;20028;-75
2021/08/01 08:11:08;;;;;;;2.63;1.92;;;19.10;98.30;;;;;;5065525;28;20025;-75
2021/08/01 08:13:34;;;;;;;2.60;1.98;;;19.20;97.10;;;;;;5057230;28;20762;-73
2021/08/01 08:15:59;;;;;;;3.05;2.28;;;19.10;97.20;;;;;;5058955;28;20025;-73
2021/08/01 08:18:25;;;;;;;2.90;2.03;;;19.10;98.30;;;;;;5053654;28;20020;-74
2021/08/01 08:20:50;;;;;;;5.00;1.95;;;19.20;97.60;;;;;;5068876;28;20024;-73
2021/08/01 08:23:19;;;;;;;7.43;2.13;;;19.30;99.50;;;;;;5069969;28;20021;-73
2021/08/01 08:25:44;;;;;;;2.90;2.03;;;19.40;97.70;;;;;;5066949;28;20423;-72
2021/08/01 08:28:12;;;;;;;2.35;2.05;;;19.40;96.50;;;;;;5065681;28;20036;-73
2021/08/01 08:30:38;;;;;;;2.67;2.10;;;19.40;96.00;;;;;;5065919;28;20037;-75
2021/08/01 08:33:04;;;;;;;5.53;2.00;;;19.50;96.30;;;;;;5067771;28;20024;-73
2021/08/01 08:35:30;;;;;;;3.17;1.70;;;19.60;95.10;;;;;;5064364;28;20475;-73
2021/08/01 08:37:55;;;;;;;2.63;1.80;;;19.60;96.10;;;;;;5066224;28;20017;-75
2021/08/01 08:40:21;;;;;;;2.38;1.83;;;19.80;95.20;;;;;;5062183;28;20028;-74
2021/08/01 08:42:50;;;;;;;1.90;1.70;;;19.90;94.80;;;;;;5061469;28;20045;-74
2021/08/01 08:45:16;;;;;;;2.50;2.05;;;20.00;93.50;;;;;;5065282;28;20083;-73
2021/08/01 08:47:44;;;;;;;2.22;1.73;;;20.00;93.90;;;;;;5059443;28;20029;-74
2021/08/01 08:50:16;;;;;;;2.28;2.00;;;20.00;93.00;;;;;;5060738;28;20029;-74
2021/08/01 08:52:44;;;;;;;2.40;2.00;;;19.90;93.20;;;;;;5055008;28;20068;-73
2021/08/01 08:55:13;;;;;;;2.63;2.10;;;19.90;93.30;;;;;;5058641;28;20032;-73
2021/08/01 08:57:43;;;;;;;3.97;1.90;;;20.00;93.30;;;;;;5062568;28;20055;-74
2021/08/01 09:00:11;;;;;;;2.10;1.90;;;20.10;92.40;;;;;;5057009;28;20025;-70
2021/08/01 09:02:38;;;;;;;3.78;2.13;;;20.20;92.90;;;;;;5064415;28;20340;-69
2021/08/01 09:05:05;;;;;;;2.88;2.10;;;20.30;93.70;;;;;;5055259;28;20036;-71
2021/08/01 09:07:30;;;;;;;3.25;2.00;;;20.30;93.30;;;;;;5064513;28;20064;-73
2021/08/01 09:09:56;;;;;;;2.17;1.98;;;20.30;92.20;;;;;;5060885;28;20048;-73
2021/08/01 09:12:22;;;;;;;4.85;1.98;;;20.40;91.60;;;;;;5062544;28;20044;-70
2021/08/01 09:14:48;;;;;;;2.28;2.08;;;20.40;92.30;;;;;;5068094;28;20055;-73
2021/08/01 09:17:34;;;;;;;5.10;2.30;;;20.40;91.80;;;;;;5065254;28;20282;-73
2021/08/01 09:20:20;;;;;;;2.65;1.95;;;20.50;92.10;;;;;;5052492;28;20483;-73
2021/08/01 09:23:01;;;;;;;4.18;1.90;;;20.70;93.20;;;;;;5060816;28;20063;-72
2021/08/01 09:25:29;;;;;;;4.32;2.50;;;21.00;91.80;;;;;;5059849;28;20043;-72
2021/08/01 09:28:20;;;;;;;2.78;2.10;;;21.20;90.50;;;;;;5063791;28;20024;-72
2021/08/01 09:30:55;;;;;;;2.75;2.35;;;21.30;88.00;;;;;;5059325;28;20200;-71
2021/08/01 09:33:36;;;;;;;2.75;2.38;;;21.20;87.10;;;;;;5055554;28;20044;-72
2021/08/01 09:36:12;;;;;;;2.30;1.80;;;21.20;89.20;;;;;;5058854;28;20063;-70
2021/08/01 09:38:54;;;;;;;4.97;2.22;;;21.20;88.30;;;;;;5070407;28;20028;-71
2021/08/01 09:41:26;;;;;;;2.13;1.90;;;21.30;90.50;;;;;;5067439;28;20576;-72
2021/08/01 09:43:56;;;;;;;3.53;2.20;;;21.20;87.70;;;;;;5061344;28;20107;-72
2021/08/01 09:46:46;;;;;;;3.20;2.30;;;21.10;87.60;;;;;;5065027;28;20036;-72
2021/08/01 09:49:19;;;;;;;3.80;2.33;;;21.00;88.40;;;;;;5057367;28;20082;-73
2021/08/01 09:51:49;;;;;;;3.28;2.40;;;20.90;90.50;;;;;;5060350;28;20403;-73
2021/08/01 09:54:16;;;;;;;4.43;2.50;;;20.90;89.60;;;;;;5060360;28;20413;-73
2021/08/01 09:56:59;;;;;;;2.10;1.90;;;21.00;90.10;;;;;;5068052;28;20112;-72
2021/08/01 09:59:27;;;;;;;4.53;2.50;;;21.00;90.60;;;;;;5059130;28;20472;-71
2021/08/01 10:02:03;;;;;;;2.75;2.00;;;21.00;89.20;;;;;;5064693;28;20390;-72
2021/08/01 10:04:40;;;;;;;3.88;2.20;;;21.00;89.80;;;;;;5068753;28;20587;-71
2021/08/01 10:07:11;;;;;;;4.80;2.40;;;21.00;89.60;;;;;;5061236;28;20044;-71
2021/08/01 10:09:39;;;;;;;2.33;2.03;;;21.00;89.70;;;;;;5052835;28;20505;-71
2021/08/01 10:12:06;;;;;;;4.65;2.20;;;21.10;89.90;;;;;;5066635;28;20032;-71
2021/08/01 10:14:32;;;;;;;2.42;2.00;;;21.10;88.90;;;;;;5067005;28;20043;-72
2021/08/01 10:16:59;;;;;;;2.28;1.90;;;21.00;90.40;;;;;;5066787;28;20282;-72
2021/08/01 10:19:27;;;;;;;3.95;2.40;;;21.10;87.60;;;;;;5059933;28;20036;-71
2021/08/01 10:21:57;;;;;;;3.88;2.13;;;21.10;87.00;;;;;;5058204;28;20138;-72
2021/08/01 10:24:29;;;;;;;2.40;2.05;;;21.00;88.20;;;;;;5061943;28;20062;-72
2021/08/01 10:27:00;;;;;;;6.07;2.30;;;21.00;88.50;;;;;;5064779;28;20040;-71
2021/08/01 10:29:51;;;;;;;4.00;2.40;;;21.00;88.90;;;;;;5060984;28;20383;-71
2021/08/01 10:32:21;;;;;;;2.63;2.10;;;20.80;89.30;;;;;;5060861;28;20029;-72
2021/08/01 10:35:13;;;;;;;2.35;2.10;;;20.80;89.70;;;;;;5051181;28;20041;-72
2021/08/01 10:38:01;;;;;;;3.13;2.20;;;20.80;90.50;;;;;;5049872;28;20063;-72
2021/08/01 10:40:33;;;;;;;3.35;2.50;;;20.90;91.50;;;;;;5056555;28;20032;-72
2021/08/01 10:43:12;;;;;;;3.92;2.45;;;20.90;90.90;;;;;;5055319;28;20036;-72
2021/08/01 10:45:42;;;;;;;2.92;2.20;;;20.80;91.50;;;;;;5052458;28;20060;-73
2021/08/01 10:48:13;;;;;;;2.50;2.20;;;20.80;91.30;;;;;;5063439;28;20099;-72
2021/08/01 10:50:40;;;;;;;3.38;2.55;;;21.00;90.20;;;;;;5059760;28;20037;-73
2021/08/01 10:53:21;;;;;;;3.45;2.40;;;21.10;89.70;;;;;;5053318;28;20020;-73
2021/08/01 10:56:17;;;;;;;2.50;2.30;;;21.20;88.20;;;;;;5051956;28;20055;-72
2021/08/01 10:58:42;;;;;;;2.67;1.80;;;21.30;87.40;;;;;;5052674;28;20040;-72
2021/08/01 11:01:08;;;;;;;2.53;1.83;;;21.30;89.60;;;;;;5058764;28;20062;-73
2021/08/01 11:03:39;;;;;;;2.50;1.73;;;21.20;85.40;;;;;;5054048;28;20033;-72
2021/08/01 11:06:05;;;;;;;4.30;1.90;;;21.00;86.00;;;;;;5050873;28;20041;-71
2021/08/01 11:08:31;;;;;;;2.47;2.10;;;20.90;86.20;;;;;;5063243;28;20364;-70
2021/08/01 11:11:17;;;;;;;3.70;1.70;;;20.90;85.50;;;;;;5063746;28;20027;-73
2021/08/01 11:13:46;;;;;;;3.03;1.60;;;20.90;86.60;;;;;;5054514;28;20029;-74
2021/08/01 11:16:14;;;;;;;2.78;1.92;;;21.00;84.00;;;;;;5060619;28;20037;-71
2021/08/01 11:18:45;;;;;;;2.60;2.10;;;21.20;84.90;;;;;;5058803;28;20025;-71
2021/08/01 11:21:12;;;;;;;2.10;1.83;;;21.30;83.70;;;;;;5066354;28;20020;-71
2021/08/01 11:23:46;;;;;;;2.53;2.05;;;21.40;81.90;;;;;;5068097;28;20298;-71
2021/08/01 11:26:17;;;;;;;3.00;1.52;;;21.60;82.00;;;;;;5060343;28;20576;-72
2021/08/01 11:29:02;;;;;;;1.50;1.40;;;21.80;80.70;;;;;;5064916;28;20036;-72
2021/08/01 11:31:28;;;;;;;2.13;1.70;;;22.00;80.60;;;;;;5060198;28;20572;-73
2021/08/01 11:33:56;;;;;;;5.65;1.70;;;22.10;77.70;;;;;;5060583;28;20033;-73
2021/08/01 11:36:30;;;;;;;4.07;1.80;;;22.00;77.20;;;;;;5062000;28;20036;-74
2021/08/01 11:38:56;;;;;;;2.90;2.00;;;21.90;78.20;;;;;;5058983;28;20020;-70
2021/08/01 11:41:27;;;;;;;3.08;2.10;;;21.80;81.50;;;;;;5065577;28;20501;-71
2021/08/01 11:44:01;;;;;;;2.05;1.85;;;21.80;79.40;;;;;;5049996;28;20017;-70
2021/08/01 11:46:29;;;;;;;6.55;1.70;;;21.80;78.80;;;;;;5056402;28;20207;-70
2021/08/01 11:48:59;;;;;;;5.20;2.15;;;21.80;78.80;;;;;;5060440;28;20020;-70
2021/08/01 11:51:30;;;;;;;2.83;1.75;;;21.80;80.40;;;;;;5060406;28;20040;-70
2021/08/01 11:53:56;;;;;;;3.53;1.77;;;21.80;77.10;;;;;;5038212;28;20115;-70
2021/08/01 11:56:22;;;;;;;2.83;1.80;;;21.80;78.30;;;;;;5056407;28;20030;-72
2021/08/01 11:58:53;;;;;;;4.05;1.90;;;21.80;77.50;;;;;;5056449;28;20020;-71
2021/08/01 12:01:19;;;;;;;;;;;21.80;79.40;;;;;;5060630;28;20086;-71
2021/08/01 12:03:47;;;;;;;2.20;1.85;;;21.90;78.00;;;;;;5057735;28;19917;-70
2021/08/01 12:06:34;;;;;;;2.65;1.60;;;22.10;78.40;;;;;;5049618;28;20041;-71
2021/08/01 12:09:13;;;;;;;1.65;1.55;;;22.60;76.00;;;;;;5059081;28;20021;-70
2021/08/01 12:11:39;;;;;;;3.53;1.80;;;23.10;74.80;;;;;;5062434;28;20036;-70
2021/08/01 12:14:11;;;;;;;2.00;1.70;;;23.80;71.50;;;;;;5059855;28;20039;-71
2021/08/01 12:16:37;;;;;;;3.50;1.80;;;24.40;72.30;;;;;;5049198;28;20040;-71
2021/08/01 12:19:16;;;;;;;1.90;1.58;;;25.10;66.90;;;;;;5052375;28;20021;-71
2021/08/01 12:21:41;;;;;;;3.28;1.70;;;25.50;65.30;;;;;;5052042;28;20812;-72
2021/08/01 12:24:32;;;;;;;2.20;1.65;;;25.80;66.30;;;;;;5054938;28;20017;-71
2021/08/01 12:27:03;;;;;;;4.65;1.30;;;26.10;68.40;;;;;;5049617;28;20033;-71
2021/08/01 12:29:37;;;;;;;2.58;1.40;;;26.60;59.40;;;;;;5049527;28;20040;-73
2021/08/01 12:32:25;;;;;;;2.45;1.45;;;26.90;59.00;;;;;;5053884;28;20383;-71
2021/08/01 12:35:19;;;;;;;1.83;1.40;;;27.10;59.00;;;;;;5060531;28;20671;-72
2021/08/01 12:38:03;;;;;;;2.03;1.83;;;27.40;59.40;;;;;;5059420;28;20082;-72
2021/08/01 12:40:36;;;;;;;2.17;1.60;;;27.40;56.90;;;;;;5053470;28;20515;-73
2021/08/01 12:43:06;;;;;;;2.03;1.80;;;27.30;57.70;;;;;;5059770;28;20020;-74
2021/08/01 12:45:39;;;;;;;2.10;1.60;;;27.60;59.40;;;;;;5056664;28;20082;-72
2021/08/01 12:48:21;;;;;;;2.55;1.75;;;27.50;58.50;;;;;;5073214;28;20040;-72
2021/08/01 12:50:58;;;;;;;3.13;1.70;;;27.00;61.60;;;;;;5055540;28;20033;-71
2021/08/01 12:53:28;;;;;;;2.63;2.00;;;26.80;58.40;;;;;;5057556;28;20876;-71
2021/08/01 12:55:56;;;;;;;2.08;1.88;;;26.90;59.00;;;;;;5051244;28;20037;-72
2021/08/01 12:58:33;;;;;;;5.72;1.85;;;26.60;62.30;;;;;;5069419;28;20032;-71
2021/08/01 13:01:04;;;;;;;2.30;1.73;;;26.60;60.40;;;;;;5069925;28;20021;-72